Lewiston, Michigan
Current Conditions -  °F | °C
As of 7:53 PM on Friday 28 Nov 2014 (Local Time) from KGLR Reporting Station
Light Snow Light Snow  
Wind Chill:   Ceiling: 8000
Heat Index: 19°   Visibility: 7mi
Dew Point: 15°   Wind: 9mph
Humidity: 85%   Direction: 150°SSE
Pressure: 30"   Gusts: NA
Location:  44.88°N, 84.31°W
Report Text: KGLR 290053Z AUTO 15008KT 7SM -SN OVC080 M07/M09 A3000 RMK AO2 SNB09 SLP185 P0000 T10721094
Loading
Personal Weather Stations






























Interactive Weather Map New forecast layout! Learn more

10-Day Weather Forecast

Advertisements
Track Severe Weather on mobile